Rockbridge, Ohio
Current Conditions -  °F | °C
As of 2:53 PM on Saturday 20 Dec 2014 (Local Time) from KLHQ Reporting Station
Overcast Overcast  
Wind Chill: 36°   Ceiling: 1700
Heat Index: 36°   Visibility: 9mi
Dew Point: 25°   Wind: 0mph
Humidity: 64%   Direction: NA
Pressure: 30.24"   Gusts: NA
Location:  39.58°N, 82.52°W
Report Text: KLHQ 201953Z AUTO 00000KT 9SM OVC017 02/M04 A3024 RMK AO2 SLP245 T00221039
Loading
Personal Weather Stations






























Interactive Weather Map New forecast layout! Learn more

10-Day Weather Forecast

Advertisements
Track Severe Weather on mobile